Time;durP1;ratioP1;P1;durP2;ratioP2;P2;SDS_P1;SDS_P2;PMS_P1;PMS_P2;Temp;Humidity;BMP_temperature;BMP_pressure;BME280_temperature;BME280_humidity;BME280_pressure;Samples;Min_cycle;Max_cycle;Signal;HPM_P1;HPM_P2
2024/03/22 05:07:04;;;;;;;0.30;0.30;;;6.40;99.90;;;;;;5270636;23;20242;-64
2024/03/22 05:09:32;;;;;;;0.40;0.40;;;6.40;99.90;;;;;;4906745;29;20174;-63
2024/03/22 05:11:57;;;;;;;0.40;0.40;;;6.50;99.90;;;;;;4904217;29;20430;-63
2024/03/22 05:14:23;;;;;;;0.30;0.30;;;6.50;99.90;;;;;;4903848;29;20641;-64
2024/03/22 05:16:48;;;;;;;0.40;0.40;;;6.50;99.90;;;;;;4905299;29;20210;-63
2024/03/22 05:19:14;;;;;;;0.30;0.30;;;6.50;99.90;;;;;;4909210;29;20184;-63
2024/03/22 05:21:39;;;;;;;0.40;0.40;;;6.40;99.90;;;;;;4904367;29;20176;-63
2024/03/22 05:24:05;;;;;;;0.40;0.40;;;6.40;99.90;;;;;;4893646;29;20557;-63
2024/03/22 05:26:36;;;;;;;0.30;0.30;;;6.40;99.90;;;;;;4879463;29;20214;-63
2024/03/22 05:29:02;;;;;;;0.40;0.40;;;6.40;99.90;;;;;;4885802;29;20518;-63
2024/03/22 05:31:28;;;;;;;0.40;0.40;;;6.40;99.90;;;;;;4899295;29;20183;-63
2024/03/22 05:33:54;;;;;;;0.30;0.30;;;6.50;99.90;;;;;;4897771;29;20259;-63
2024/03/22 05:36:19;;;;;;;0.40;0.40;;;6.50;99.90;;;;;;4896205;29;20450;-63
2024/03/22 05:38:45;;;;;;;0.37;0.37;;;6.60;99.90;;;;;;4894112;29;20585;-64
2024/03/22 05:41:10;;;;;;;0.30;0.30;;;6.60;99.90;;;;;;4897570;29;20274;-63
2024/03/22 05:43:36;;;;;;;0.30;0.30;;;6.70;99.90;;;;;;4897368;29;20215;-63
2024/03/22 05:46:02;;;;;;;0.30;0.30;;;6.80;99.90;;;;;;4886408;29;20713;-62
2024/03/22 05:48:28;;;;;;;0.30;0.30;;;6.90;99.90;;;;;;4882917;29;20762;-63
2024/03/22 05:50:53;;;;;;;0.30;0.30;;;7.00;99.90;;;;;;4882705;29;20176;-63
2024/03/22 05:53:19;;;;;;;0.30;0.30;;;7.10;99.90;;;;;;4895304;29;20178;-63
2024/03/22 05:55:45;;;;;;;0.53;0.53;;;7.20;99.90;;;;;;4893827;29;20275;-63
2024/03/22 05:58:10;;;;;;;0.30;0.30;;;7.30;99.90;;;;;;4891729;29;20533;-63
2024/03/22 06:00:39;;;;;;;0.50;0.50;;;7.40;99.90;;;;;;4901259;29;20301;-63
2024/03/22 06:03:04;;;;;;;0.85;0.85;;;7.40;99.90;;;;;;4892886;29;20179;-64
2024/03/22 06:05:30;;;;;;;0.38;0.38;;;7.40;99.90;;;;;;4903074;29;20182;-63
2024/03/22 06:07:56;;;;;;;0.30;0.30;;;7.40;99.90;;;;;;4904177;29;20576;-64
2024/03/22 06:10:22;;;;;;;0.30;0.30;;;7.40;99.90;;;;;;4894739;29;20181;-64
2024/03/22 06:12:47;;;;;;;0.40;0.40;;;7.40;99.90;;;;;;4901397;29;20552;-64
2024/03/22 06:15:13;;;;;;;0.90;0.90;;;7.50;99.90;;;;;;4898748;29;20514;-64
2024/03/22 06:17:38;;;;;;;0.30;0.30;;;7.50;99.90;;;;;;4901018;29;20282;-63
2024/03/22 06:20:05;;;;;;;0.73;0.73;;;7.40;99.90;;;;;;4890819;29;20193;-64
2024/03/22 06:22:31;;;;;;;0.43;0.43;;;7.60;99.90;;;;;;4881037;29;20548;-64
2024/03/22 06:24:56;;;;;;;0.40;0.40;;;8.00;99.90;;;;;;4892594;29;20217;-63
2024/03/22 06:27:22;;;;;;;0.30;0.30;;;8.30;99.90;;;;;;4881904;29;20211;-63
2024/03/22 06:29:48;;;;;;;0.30;0.30;;;8.50;99.90;;;;;;4882141;29;20423;-63
2024/03/22 06:32:13;;;;;;;0.40;0.40;;;8.70;99.90;;;;;;4881782;29;20262;-63
2024/03/22 06:34:39;;;;;;;0.40;0.40;;;8.90;99.90;;;;;;4879657;29;20181;-62
2024/03/22 06:37:05;;;;;;;0.30;0.30;;;9.20;99.90;;;;;;4879695;29;20207;-63
2024/03/22 06:39:30;;;;;;;0.30;0.30;;;9.40;99.90;;;;;;4879809;29;20171;-63
2024/03/22 06:41:56;;;;;;;0.30;0.30;;;9.70;99.90;;;;;;4898180;29;20212;-66
2024/03/22 06:44:22;;;;;;;0.30;0.30;;;9.90;99.90;;;;;;4898312;29;20172;-65
2024/03/22 06:46:47;;;;;;;0.30;0.30;;;10.10;99.90;;;;;;4878611;29;20261;-64
2024/03/22 06:49:13;;;;;;;0.30;0.30;;;10.50;99.90;;;;;;4885365;29;20185;-66
2024/03/22 06:51:38;;;;;;;0.30;0.30;;;10.80;99.90;;;;;;4899865;29;20661;-64
2024/03/22 06:54:05;;;;;;;0.30;0.30;;;11.20;99.90;;;;;;4900061;29;20212;-65
2024/03/22 06:56:31;;;;;;;0.40;0.40;;;11.50;99.90;;;;;;4898914;29;20949;-64
2024/03/22 06:58:56;;;;;;;0.50;0.50;;;11.70;99.90;;;;;;4899189;29;20183;-65
2024/03/22 07:01:22;;;;;;;0.30;0.30;;;11.90;99.90;;;;;;4884273;29;20214;-65
2024/03/22 07:03:47;;;;;;;0.30;0.20;;;12.20;99.90;;;;;;4881140;29;20186;-65
2024/03/22 07:06:15;;;;;;;0.40;0.40;;;12.40;99.90;;;;;;4883268;29;20231;-65
2024/03/22 07:08:40;;;;;;;0.50;0.50;;;12.70;99.90;;;;;;4899626;29;20293;-65
2024/03/22 07:11:07;;;;;;;0.30;0.30;;;12.90;99.90;;;;;;4899959;29;20515;-65
2024/03/22 07:13:33;;;;;;;0.30;0.30;;;13.20;99.90;;;;;;4899824;29;20193;-66
2024/03/22 07:15:58;;;;;;;1.80;0.63;;;13.80;99.90;;;;;;4890967;29;20450;-65
2024/03/22 07:18:24;;;;;;;0.50;0.50;;;14.40;99.90;;;;;;4886875;29;20422;-66
2024/03/22 07:20:49;;;;;;;0.37;0.37;;;15.00;99.90;;;;;;4888671;29;20321;-65
2024/03/22 07:23:15;;;;;;;0.30;0.30;;;15.50;99.90;;;;;;4897567;29;20929;-69
2024/03/22 07:25:45;;;;;;;1.13;0.73;;;16.30;99.90;;;;;;4882452;29;20210;-64
2024/03/22 07:28:11;;;;;;;0.50;0.50;;;17.00;99.70;;;;;;4881323;29;20227;-69
2024/03/22 07:30:37;;;;;;;0.37;0.37;;;17.70;98.60;;;;;;4887018;29;20415;-69
2024/03/22 07:33:03;;;;;;;0.60;0.40;;;18.30;96.70;;;;;;4898853;29;20422;-62
2024/03/22 07:35:29;;;;;;;0.37;0.30;;;18.90;96.00;;;;;;4883735;29;20187;-74
2024/03/22 07:37:55;;;;;;;0.30;0.30;;;19.20;95.10;;;;;;4898633;29;20381;-72
2024/03/22 07:40:21;;;;;;;0.47;0.47;;;19.30;94.90;;;;;;4898352;29;20190;-69
2024/03/22 07:42:46;;;;;;;0.30;0.30;;;19.30;93.90;;;;;;4908704;29;20225;-70
2024/03/22 07:45:12;;;;;;;0.47;0.47;;;19.40;94.50;;;;;;4891447;29;20478;-69
2024/03/22 07:47:38;;;;;;;0.30;0.30;;;19.50;94.50;;;;;;4879041;29;20222;-69
2024/03/22 07:50:04;;;;;;;0.30;0.30;;;19.80;94.00;;;;;;4902389;29;20171;-68
2024/03/22 07:52:30;;;;;;;0.30;0.30;;;20.10;93.70;;;;;;4917571;29;20952;-68
2024/03/22 07:54:55;;;;;;;0.40;0.40;;;20.70;92.70;;;;;;4912248;29;20422;-69
2024/03/22 07:57:21;;;;;;;0.67;0.67;;;21.40;92.30;;;;;;4880043;29;20187;-69
2024/03/22 07:59:47;;;;;;;1.17;0.50;;;21.80;91.00;;;;;;4887576;29;20356;-70
2024/03/22 08:02:13;;;;;;;0.40;0.40;;;22.20;91.20;;;;;;4894712;29;20508;-72
2024/03/22 08:04:38;;;;;;;0.77;0.77;;;22.70;88.50;;;;;;4895501;29;20420;-77
2024/03/22 08:07:04;;;;;;;0.40;0.40;;;23.00;87.50;;;;;;4899696;29;20222;-72
2024/03/22 08:09:29;;;;;;;1.40;1.20;;;23.50;87.10;;;;;;4888450;29;20357;-69
2024/03/22 08:11:55;;;;;;;0.50;0.50;;;23.90;86.10;;;;;;4898349;29;20590;-70
2024/03/22 08:14:30;;;;;;;0.50;0.50;;;24.30;85.20;;;;;;4898223;29;20207;-70
2024/03/22 08:16:56;;;;;;;1.53;1.43;;;24.70;83.40;;;;;;4899379;29;20230;-67
2024/03/22 08:19:21;;;;;;;0.73;0.73;;;24.90;82.40;;;;;;4898147;29;20770;-66
2024/03/22 08:21:47;;;;;;;0.40;0.40;;;25.40;81.10;;;;;;4898486;29;20200;-67
2024/03/22 08:24:12;;;;;;;0.40;0.40;;;25.80;78.90;;;;;;4893719;29;20260;-67
2024/03/22 08:26:38;;;;;;;0.53;0.53;;;25.90;78.00;;;;;;4897426;29;20709;-67
2024/03/22 08:29:03;;;;;;;0.50;0.50;;;26.00;78.40;;;;;;4897878;29;20197;-67
2024/03/22 08:31:29;;;;;;;0.97;0.97;;;26.30;78.50;;;;;;4898079;29;20232;-67
2024/03/22 08:33:56;;;;;;;0.43;0.43;;;26.60;75.60;;;;;;4897974;29;20701;-68
2024/03/22 08:36:23;;;;;;;0.63;0.60;;;26.20;75.00;;;;;;4892543;29;20611;-67
2024/03/22 08:38:49;;;;;;;0.43;0.43;;;25.60;76.50;;;;;;4897074;29;20411;-68
2024/03/22 08:41:15;;;;;;;1.07;1.07;;;24.60;78.30;;;;;;4901006;29;20515;-65
2024/03/22 08:43:40;;;;;;;1.50;1.20;;;24.00;79.70;;;;;;4886020;29;20436;-66
2024/03/22 08:46:06;;;;;;;0.30;0.30;;;23.20;82.00;;;;;;4897150;29;20247;-66
2024/03/22 08:48:31;;;;;;;0.97;0.97;;;22.90;83.60;;;;;;4897719;29;20653;-66
2024/03/22 08:50:57;;;;;;;0.50;0.50;;;22.60;84.50;;;;;;4896909;29;20518;-66
2024/03/22 08:53:22;;;;;;;0.40;0.40;;;22.10;85.50;;;;;;4896532;29;20170;-66
2024/03/22 08:55:49;;;;;;;0.40;0.40;;;21.80;86.70;;;;;;4893642;29;20261;-67
2024/03/22 08:58:15;;;;;;;0.30;0.30;;;21.60;87.50;;;;;;4897624;29;20263;-66
2024/03/22 09:00:42;;;;;;;0.60;0.57;;;21.50;87.80;;;;;;4901209;29;20424;-67
2024/03/22 09:03:07;;;;;;;0.60;0.60;;;21.20;88.70;;;;;;4889689;29;20416;-65
2024/03/22 09:05:33;;;;;;;0.50;0.50;;;20.70;89.60;;;;;;4902141;29;20916;-64
2024/03/22 09:07:59;;;;;;;0.30;0.30;;;20.30;90.50;;;;;;4889731;29;20195;-65
2024/03/22 09:10:26;;;;;;;1.07;0.57;;;20.20;90.80;;;;;;4895318;29;20203;-65
2024/03/22 09:12:51;;;;;;;0.30;0.30;;;20.00;91.20;;;;;;4896560;29;20506;-65
2024/03/22 09:15:17;;;;;;;0.30;0.30;;;19.90;91.30;;;;;;4885180;29;20479;-65
2024/03/22 09:17:42;;;;;;;0.40;0.40;;;19.80;91.70;;;;;;4876056;29;20203;-67
2024/03/22 09:20:09;;;;;;;0.40;0.40;;;19.90;91.90;;;;;;4895941;29;20174;-66
2024/03/22 09:22:35;;;;;;;0.30;0.30;;;19.90;92.00;;;;;;4914963;29;20218;-65
2024/03/22 09:25:00;;;;;;;0.40;0.40;;;20.10;91.70;;;;;;4904719;29;20502;-66
2024/03/22 09:27:26;;;;;;;0.30;0.30;;;20.30;91.70;;;;;;4898367;29;20210;-65
2024/03/22 09:29:52;;;;;;;0.30;0.30;;;20.50;91.90;;;;;;4899588;29;20614;-64
2024/03/22 09:32:18;;;;;;;0.33;0.33;;;20.90;91.10;;;;;;4899999;29;20212;-63
2024/03/22 09:34:43;;;;;;;0.50;0.50;;;21.10;91.00;;;;;;4899184;29;20495;-64
2024/03/22 09:37:09;;;;;;;0.70;0.70;;;21.20;90.70;;;;;;4899734;29;20212;-64
2024/03/22 09:39:35;;;;;;;0.30;0.30;;;21.40;90.70;;;;;;4904369;29;20289;-65
2024/03/22 09:42:03;;;;;;;0.30;0.20;;;21.80;90.40;;;;;;4918808;29;20177;-64
2024/03/22 09:44:29;;;;;;;0.30;0.30;;;22.40;90.10;;;;;;4918764;29;20173;-64
2024/03/22 09:46:56;;;;;;;0.50;0.50;;;23.00;87.90;;;;;;4900137;29;20872;-63
2024/03/22 09:49:23;;;;;;;0.93;0.93;;;23.50;86.90;;;;;;4899535;29;20187;-64
2024/03/22 09:51:51;;;;;;;0.53;0.53;;;24.10;84.30;;;;;;4894982;29;20417;-66
2024/03/22 09:54:17;;;;;;;0.50;0.50;;;24.30;82.30;;;;;;4881179;29;20391;-65
2024/03/22 09:56:43;;;;;;;0.30;0.30;;;24.60;81.60;;;;;;4891200;29;20965;-65
2024/03/22 09:59:12;;;;;;;0.40;0.40;;;25.10;80.10;;;;;;4900966;29;20644;-65
2024/03/22 10:01:41;;;;;;;0.70;0.53;;;25.30;79.50;;;;;;4918381;29;20583;-66
2024/03/22 10:04:08;;;;;;;0.50;0.50;;;25.50;79.80;;;;;;4918243;29;20503;-64
2024/03/22 10:06:33;;;;;;;0.60;0.60;;;25.80;77.80;;;;;;4904145;29;20508;-66
2024/03/22 10:08:59;;;;;;;0.50;0.47;;;26.20;75.10;;;;;;4868334;29;1467446;-66
2024/03/22 10:11:27;;;;;;;0.60;0.60;;;26.10;73.90;;;;;;4919440;29;20193;-67
2024/03/22 10:13:54;;;;;;;0.67;0.50;;;25.90;72.80;;;;;;4917980;29;20182;-65
2024/03/22 10:16:21;;;;;;;0.33;0.33;;;25.80;72.80;;;;;;4904086;29;20451;-65
2024/03/22 10:18:48;;;;;;;0.50;0.40;;;25.70;77.00;;;;;;4900810;29;20402;-67
2024/03/22 10:21:21;;;;;;;0.60;0.60;;;25.60;77.70;;;;;;4911486;29;20393;-68
2024/03/22 10:23:48;;;;;;;0.50;0.50;;;25.60;78.00;;;;;;4896991;29;20394;-67
2024/03/22 10:26:14;;;;;;;0.30;0.30;;;25.30;76.00;;;;;;4899624;29;20947;-67
2024/03/22 10:28:46;;;;;;;0.30;0.30;;;24.80;76.80;;;;;;4900056;29;20881;-67
2024/03/22 10:31:13;;;;;;;0.50;0.30;;;24.40;77.90;;;;;;4898808;29;20446;-68
2024/03/22 10:33:41;;;;;;;0.30;0.27;;;24.20;79.20;;;;;;4900392;29;20397;-68
2024/03/22 10:36:27;;;;;;;0.30;0.20;;;24.20;79.60;;;;;;4898370;29;20772;-67
2024/03/22 10:39:00;;;;;;;0.30;0.20;;;24.20;77.20;;;;;;4900392;29;20587;-68
2024/03/22 10:41:26;;;;;;;0.30;0.20;;;24.30;76.40;;;;;;4900606;29;20366;-67
2024/03/22 10:43:53;;;;;;;0.40;0.30;;;24.20;75.30;;;;;;4900245;29;20403;-67
2024/03/22 10:46:21;;;;;;;0.40;0.40;;;24.40;75.60;;;;;;4899598;29;20435;-67
2024/03/22 10:48:47;;;;;;;0.40;0.40;;;24.60;75.80;;;;;;4900035;29;20453;-67
2024/03/22 10:51:15;;;;;;;0.53;0.53;;;24.40;74.90;;;;;;4898470;29;20741;-68
2024/03/22 10:53:42;;;;;;;0.83;0.83;;;24.40;73.30;;;;;;4900930;29;20791;-65
2024/03/22 10:56:09;;;;;;;1.43;0.50;;;24.20;73.40;;;;;;4898441;29;20415;-65
2024/03/22 10:58:39;;;;;;;0.30;0.30;;;24.20;74.50;;;;;;4896540;29;20903;-63
2024/03/22 11:01:05;;;;;;;0.30;0.20;;;23.90;75.60;;;;;;4898312;29;20973;-67
2024/03/22 11:03:33;;;;;;;0.30;0.30;;;24.00;76.40;;;;;;4899483;29;20495;-68
2024/03/22 11:05:58;;;;;;;0.40;0.30;;;24.40;78.80;;;;;;4898860;29;20207;-68
2024/03/22 11:08:28;;;;;;;0.30;0.27;;;24.70;78.70;;;;;;4899200;29;20409;-67
2024/03/22 11:10:56;;;;;;;0.30;0.30;;;25.00;77.30;;;;;;4898901;29;20183;-68
2024/03/22 11:13:22;;;;;;;0.50;0.50;;;25.10;75.10;;;;;;4899302;29;20398;-67
2024/03/22 11:15:49;;;;;;;0.40;0.40;;;24.90;72.80;;;;;;4896677;29;20446;-68
2024/03/22 11:18:15;;;;;;;0.77;0.77;;;24.50;73.90;;;;;;4905598;29;20264;-70
2024/03/22 11:20:41;;;;;;;0.67;0.47;;;24.20;75.40;;;;;;4900945;29;20688;-69
2024/03/22 11:23:09;;;;;;;0.40;0.40;;;24.00;75.20;;;;;;4896944;29;20415;-67
2024/03/22 11:25:35;;;;;;;0.30;0.30;;;23.40;74.10;;;;;;4894877;29;20876;-69
2024/03/22 11:28:01;;;;;;;0.60;0.60;;;22.70;75.40;;;;;;4909637;29;20414;-69
2024/03/22 11:30:32;;;;;;;0.30;0.30;;;22.40;78.30;;;;;;4887431;29;20543;-66
2024/03/22 11:32:57;;;;;;;0.73;0.53;;;22.30;79.10;;;;;;4887096;29;20459;-67
2024/03/22 11:35:23;;;;;;;0.70;0.30;;;22.30;79.30;;;;;;4879889;29;20399;-66
2024/03/22 11:37:50;;;;;;;0.30;0.20;;;22.30;81.10;;;;;;4880668;29;20599;-66
2024/03/22 11:40:17;;;;;;;0.30;0.20;;;22.40;80.70;;;;;;4892058;29;20181;-74
2024/03/22 11:42:47;;;;;;;0.80;0.80;;;22.40;81.90;;;;;;4884299;29;20479;-74
2024/03/22 11:45:14;;;;;;;0.30;0.30;;;22.40;79.20;;;;;;4883883;29;20758;-74
2024/03/22 11:47:40;;;;;;;0.30;0.30;;;22.30;81.20;;;;;;4898342;29;20448;-74
2024/03/22 11:50:06;;;;;;;0.50;0.50;;;22.30;82.00;;;;;;4898896;29;20394;-74
2024/03/22 11:52:32;;;;;;;0.30;0.20;;;22.40;83.40;;;;;;4898298;29;20185;-73
2024/03/22 11:54:57;;;;;;;0.30;0.30;;;22.50;81.30;;;;;;4879736;29;20435;-74
2024/03/22 11:57:24;;;;;;;0.30;0.30;;;22.10;79.80;;;;;;4882290;29;20215;-66
2024/03/22 11:59:50;;;;;;;0.40;0.40;;;22.00;81.50;;;;;;4896561;29;20191;-66
2024/03/22 12:02:16;;;;;;;0.50;0.47;;;21.80;80.90;;;;;;4883960;29;20487;-67
2024/03/22 12:04:42;;;;;;;0.30;0.20;;;21.90;80.90;;;;;;4890881;29;20509;-67
2024/03/22 12:07:14;;;;;;;0.40;0.30;;;21.90;81.50;;;;;;4893457;29;20273;-66
2024/03/22 12:09:49;;;;;;;0.47;0.47;;;22.00;82.60;;;;;;4897766;29;20434;-68
2024/03/22 12:12:16;;;;;;;0.40;0.40;;;22.10;81.30;;;;;;4880277;29;20423;-65
2024/03/22 12:14:41;;;;;;;0.30;0.20;;;22.30;82.00;;;;;;4896607;29;20778;-67
2024/03/22 12:17:07;;;;;;;0.30;0.30;;;22.30;82.40;;;;;;4887861;29;20470;-66
2024/03/22 12:19:33;;;;;;;0.30;0.30;;;22.40;82.30;;;;;;4884163;29;20188;-67
2024/03/22 12:21:59;;;;;;;0.40;0.40;;;22.50;80.30;;;;;;4892357;29;20425;-66
2024/03/22 12:24:29;;;;;;;0.63;0.63;;;22.40;80.70;;;;;;4884203;29;20189;-65
2024/03/22 12:26:55;;;;;;;0.30;0.30;;;22.30;79.80;;;;;;4893666;29;20426;-66
2024/03/22 12:29:21;;;;;;;0.30;0.20;;;22.00;79.80;;;;;;4894828;29;20443;-65
2024/03/22 12:31:47;;;;;;;0.50;0.50;;;22.00;81.40;;;;;;4889613;29;20272;-64
2024/03/22 12:34:12;;;;;;;0.60;0.60;;;21.90;78.70;;;;;;4894857;29;20410;-65
2024/03/22 12:36:38;;;;;;;0.30;0.30;;;21.70;78.90;;;;;;4897184;29;20470;-66
2024/03/22 12:39:04;;;;;;;0.83;0.83;;;21.60;79.10;;;;;;4880901;29;20179;-67
2024/03/22 12:41:31;;;;;;;0.30;0.30;;;21.60;78.80;;;;;;4889043;29;20883;-69
2024/03/22 12:43:56;;;;;;;0.30;0.20;;;21.60;80.70;;;;;;4896813;29;20175;-66
2024/03/22 12:46:22;;;;;;;0.30;0.30;;;21.60;80.50;;;;;;4881714;29;20422;-65
2024/03/22 12:48:48;;;;;;;0.30;0.30;;;21.70;79.90;;;;;;4881586;29;20186;-65
2024/03/22 12:51:14;;;;;;;0.30;0.30;;;21.70;80.40;;;;;;4896213;29;20175;-66
2024/03/22 12:53:40;;;;;;;0.30;0.30;;;21.80;79.20;;;;;;4890603;29;20191;-65
2024/03/22 12:56:06;;;;;;;0.43;0.30;;;21.90;79.90;;;;;;4878792;29;20422;-63
2024/03/22 12:58:31;;;;;;;0.30;0.30;;;22.00;78.50;;;;;;4878817;29;20242;-64
2024/03/22 13:00:58;;;;;;;0.57;0.57;;;22.00;77.00;;;;;;4891922;29;20186;-66
2024/03/22 13:03:23;;;;;;;0.30;0.20;;;22.00;77.40;;;;;;4878981;29;20194;-66
2024/03/22 13:05:49;;;;;;;0.63;0.63;;;21.90;77.30;;;;;;4889555;29;20811;-67
2024/03/22 13:08:15;;;;;;;0.40;0.40;;;21.90;76.30;;;;;;4889051;29;20202;-65
2024/03/22 13:10:43;;;;;;;0.60;0.60;;;21.90;77.50;;;;;;4879364;29;20247;-65
2024/03/22 13:13:09;;;;;;;0.63;0.63;;;22.00;77.80;;;;;;4889234;29;20191;-67
2024/03/22 13:15:36;;;;;;;0.37;0.37;;;22.00;78.70;;;;;;4883718;29;20426;-66
2024/03/22 13:18:03;;;;;;;0.33;0.33;;;22.00;79.50;;;;;;4900444;29;20464;-65
2024/03/22 13:20:29;;;;;;;0.30;0.30;;;21.80;80.40;;;;;;4889512;29;20390;-66
2024/03/22 13:22:55;;;;;;;0.40;0.30;;;21.90;79.10;;;;;;4909314;29;20430;-66
2024/03/22 13:25:20;;;;;;;0.60;0.60;;;21.90;78.50;;;;;;4892627;29;20765;-65
2024/03/22 13:27:46;;;;;;;0.30;0.20;;;21.90;78.30;;;;;;4890815;29;20259;-67
2024/03/22 13:30:12;;;;;;;0.50;0.50;;;21.90;78.30;;;;;;4890918;29;20651;-68
2024/03/22 13:32:38;;;;;;;0.30;0.30;;;22.00;76.40;;;;;;4888794;29;20191;-68
2024/03/22 13:35:05;;;;;;;0.30;0.20;;;21.90;76.70;;;;;;4895821;29;20423;-67
2024/03/22 13:37:31;;;;;;;0.43;0.43;;;21.80;78.20;;;;;;4897251;29;20441;-66
2024/03/22 13:39:57;;;;;;;0.40;0.37;;;21.70;80.70;;;;;;4888209;29;20844;-67
2024/03/22 13:42:22;;;;;;;0.30;0.30;;;21.60;79.70;;;;;;4905640;29;20421;-67
2024/03/22 13:44:48;;;;;;;0.30;0.27;;;21.60;79.20;;;;;;4891179;29;20187;-67
2024/03/22 13:47:14;;;;;;;0.30;0.30;;;21.60;81.70;;;;;;4885912;29;20237;-67
2024/03/22 13:49:41;;;;;;;0.33;0.33;;;21.60;81.00;;;;;;4897070;29;20271;-67
2024/03/22 13:52:07;;;;;;;0.30;0.30;;;21.60;81.60;;;;;;4885775;29;20239;-68
2024/03/22 13:54:33;;;;;;;0.30;0.30;;;21.60;81.70;;;;;;4887929;29;20390;-67
2024/03/22 13:57:00;;;;;;;0.30;0.30;;;21.50;81.20;;;;;;4878303;29;20437;-68
2024/03/22 13:59:26;;;;;;;0.30;0.30;;;21.40;81.40;;;;;;4887220;29;20183;-65
2024/03/22 14:01:52;;;;;;;0.30;0.30;;;21.30;80.90;;;;;;4894055;29;20396;-67
2024/03/22 14:04:19;;;;;;;0.30;0.30;;;21.20;81.60;;;;;;4878828;29;20392;-67
2024/03/22 14:06:45;;;;;;;0.30;0.30;;;21.00;80.20;;;;;;4881044;29;20448;-68
2024/03/22 14:09:13;;;;;;;0.30;0.30;;;21.00;81.40;;;;;;4896926;29;20435;-67
2024/03/22 14:11:39;;;;;;;0.30;0.30;;;21.00;82.40;;;;;;4888301;29;20950;-66
2024/03/22 14:14:05;;;;;;;0.30;0.27;;;20.90;83.30;;;;;;4899864;29;20401;-68
2024/03/22 14:16:31;;;;;;;0.40;0.40;;;20.90;82.20;;;;;;4894993;29;20996;-67
2024/03/22 14:18:56;;;;;;;0.30;0.20;;;21.00;82.40;;;;;;4910345;29;20397;-68
2024/03/22 14:21:22;;;;;;;0.60;0.60;;;21.00;82.30;;;;;;4901332;29;20666;-68
2024/03/22 14:23:51;;;;;;;0.57;0.57;;;20.90;82.30;;;;;;4905696;29;20515;-66
2024/03/22 14:26:17;;;;;;;0.30;0.30;;;20.80;83.60;;;;;;4900113;29;20194;-65
2024/03/22 14:28:43;;;;;;;1.10;1.10;;;20.60;83.20;;;;;;4900028;29;20422;-66
2024/03/22 14:31:10;;;;;;;0.50;0.50;;;20.50;83.00;;;;;;4884821;29;20903;-65
2024/03/22 14:33:36;;;;;;;0.40;0.40;;;20.40;84.00;;;;;;4881635;29;20394;-65
2024/03/22 14:36:02;;;;;;;0.70;0.70;;;20.30;84.50;;;;;;4881392;29;20918;-65
2024/03/22 14:38:28;;;;;;;0.30;0.30;;;20.20;85.60;;;;;;4882048;29;20502;-65
2024/03/22 14:40:55;;;;;;;0.30;0.30;;;20.20;85.50;;;;;;4881751;29;20885;-65
2024/03/22 14:43:21;;;;;;;0.60;0.60;;;20.00;85.00;;;;;;4881520;29;20202;-66
2024/03/22 14:45:47;;;;;;;0.30;0.30;;;19.90;85.80;;;;;;4879193;29;20550;-66
2024/03/22 14:48:12;;;;;;;0.30;0.20;;;19.80;86.60;;;;;;4879375;29;20511;-66
2024/03/22 14:50:38;;;;;;;0.47;0.47;;;19.70;87.20;;;;;;4896349;29;20242;-66
2024/03/22 14:53:04;;;;;;;0.30;0.30;;;19.60;86.90;;;;;;4898332;29;20206;-66
2024/03/22 14:55:30;;;;;;;0.40;0.40;;;19.60;86.30;;;;;;4897733;29;20269;-66
2024/03/22 14:57:55;;;;;;;0.30;0.30;;;19.60;85.60;;;;;;4898633;29;20583;-67
2024/03/22 15:00:21;;;;;;;0.40;0.40;;;19.60;85.00;;;;;;4901904;29;20198;-66
2024/03/22 15:02:47;;;;;;;0.30;0.30;;;19.50;82.00;;;;;;4900151;29;20228;-65
2024/03/22 15:05:13;;;;;;;0.30;0.30;;;19.40;80.60;;;;;;4899579;29;20174;-66
2024/03/22 15:07:38;;;;;;;0.30;0.30;;;19.40;80.00;;;;;;4899784;29;20214;-65
2024/03/22 15:10:04;;;;;;;0.30;0.20;;;19.40;79.20;;;;;;4899150;29;20194;-66
2024/03/22 15:12:30;;;;;;;0.30;0.30;;;19.40;78.10;;;;;;4900065;29;20207;-66
2024/03/22 15:14:56;;;;;;;0.40;0.40;;;19.30;77.40;;;;;;4899522;29;20506;-65
2024/03/22 15:17:24;;;;;;;0.67;0.67;;;19.30;78.10;;;;;;4899279;29;20437;-65
2024/03/22 15:19:50;;;;;;;0.40;0.40;;;19.30;77.90;;;;;;4899128;29;20171;-65
2024/03/22 15:22:18;;;;;;;0.30;0.30;;;19.30;77.60;;;;;;4899209;29;20811;-66
2024/03/22 15:24:45;;;;;;;0.30;0.30;;;19.30;78.60;;;;;;4899298;29;20677;-65
2024/03/22 15:27:11;;;;;;;0.30;0.30;;;19.30;78.70;;;;;;4897929;29;20434;-65
2024/03/22 15:29:37;;;;;;;0.30;0.30;;;19.30;78.20;;;;;;4880815;29;20878;-66
2024/03/22 15:32:04;;;;;;;1.80;1.70;;;19.10;77.00;;;;;;4881000;29;20283;-66
2024/03/22 15:34:30;;;;;;;0.30;0.30;;;19.00;78.20;;;;;;4880843;29;20955;-65
2024/03/22 15:36:55;;;;;;;0.30;0.30;;;18.90;77.50;;;;;;4880410;29;20463;-65
2024/03/22 15:39:21;;;;;;;0.30;0.30;;;18.80;78.60;;;;;;4880810;29;20421;-65
2024/03/22 15:41:47;;;;;;;0.30;0.30;;;18.80;78.80;;;;;;4881184;29;20176;-65
2024/03/22 15:44:13;;;;;;;0.30;0.30;;;18.80;78.50;;;;;;4880886;29;20172;-65
2024/03/22 15:46:39;;;;;;;0.30;0.30;;;18.70;77.90;;;;;;4882261;29;20470;-65
2024/03/22 15:49:04;;;;;;;0.50;0.50;;;18.60;78.40;;;;;;4881883;29;20903;-66
2024/03/22 15:51:30;;;;;;;0.73;0.73;;;18.60;78.30;;;;;;4885220;29;20243;-65
2024/03/22 15:53:55;;;;;;;0.30;0.30;;;18.50;78.00;;;;;;4886280;29;20227;-66
2024/03/22 15:56:21;;;;;;;0.50;0.50;;;18.50;79.10;;;;;;4896725;29;20214;-65
2024/03/22 15:58:47;;;;;;;0.30;0.30;;;18.50;79.10;;;;;;4909274;29;20183;-65
2024/03/22 16:01:12;;;;;;;0.30;0.30;;;18.40;79.70;;;;;;4907938;29;20238;-66
2024/03/22 16:03:38;;;;;;;0.30;0.30;;;18.40;80.40;;;;;;4900590;29;20218;-65
2024/03/22 16:06:04;;;;;;;0.30;0.20;;;18.40;78.90;;;;;;4890144;29;20203;-65
2024/03/22 16:08:31;;;;;;;0.40;0.40;;;18.30;79.30;;;;;;4886592;29;20666;-65
2024/03/22 16:10:57;;;;;;;0.30;0.30;;;18.30;79.00;;;;;;4891875;29;20427;-65
2024/03/22 16:13:22;;;;;;;0.30;0.20;;;18.30;79.20;;;;;;4901114;29;20422;-65
2024/03/22 16:15:48;;;;;;;0.40;0.40;;;18.30;80.20;;;;;;4915473;29;20226;-65
2024/03/22 16:18:14;;;;;;;0.30;0.30;;;18.20;80.10;;;;;;4900483;29;20209;-65
2024/03/22 16:20:39;;;;;;;0.30;0.30;;;18.10;79.60;;;;;;4899981;29;20545;-66
2024/03/22 16:23:09;;;;;;;0.40;0.40;;;18.00;80.40;;;;;;4903226;29;20578;-65
2024/03/22 16:25:38;;;;;;;0.30;0.30;;;17.90;80.10;;;;;;4903929;29;20452;-65
2024/03/22 16:28:04;;;;;;;0.30;0.30;;;17.80;80.60;;;;;;4892881;29;20448;-64
2024/03/22 16:30:31;;;;;;;0.50;0.40;;;17.80;80.80;;;;;;4880554;29;20412;-64
2024/03/22 16:32:57;;;;;;;0.30;0.30;;;17.80;80.70;;;;;;4879699;29;20467;-65
2024/03/22 16:35:23;;;;;;;0.30;0.20;;;17.80;80.70;;;;;;4879612;29;20419;-65
2024/03/22 16:37:50;;;;;;;0.30;0.30;;;17.80;81.10;;;;;;4886969;29;20510;-65
2024/03/22 16:40:16;;;;;;;0.40;0.40;;;17.80;82.20;;;;;;4898491;29;20182;-64
2024/03/22 16:42:49;;;;;;;0.30;0.30;;;17.80;82.10;;;;;;4898456;29;20477;-64
2024/03/22 16:45:15;;;;;;;0.30;0.30;;;17.70;83.10;;;;;;4898479;29;20819;-65
2024/03/22 16:47:41;;;;;;;0.30;0.30;;;17.60;83.10;;;;;;4892717;29;20436;-65
2024/03/22 16:50:09;;;;;;;0.30;0.30;;;17.50;83.60;;;;;;4880194;29;20672;-64
2024/03/22 16:52:36;;;;;;;0.30;0.30;;;17.50;84.20;;;;;;4879761;29;20563;-65
2024/03/22 16:55:01;;;;;;;0.30;0.30;;;17.40;84.90;;;;;;4891731;29;20415;-65
2024/03/22 16:57:27;;;;;;;0.30;0.30;;;17.40;85.00;;;;;;4898133;29;20429;-65
2024/03/22 16:59:53;;;;;;;0.30;0.30;;;17.30;85.50;;;;;;4898273;29;20542;-65
2024/03/22 17:02:19;;;;;;;0.30;0.30;;;17.30;86.50;;;;;;4898147;29;20414;-65
2024/03/22 17:04:45;;;;;;;0.33;0.33;;;17.30;86.50;;;;;;4888697;29;20179;-65
2024/03/22 17:07:10;;;;;;;0.40;0.40;;;17.20;86.70;;;;;;4877819;29;20470;-65
2024/03/22 17:09:36;;;;;;;0.40;0.40;;;17.20;87.00;;;;;;4879621;29;20179;-64
2024/03/22 17:12:03;;;;;;;0.30;0.30;;;17.10;88.50;;;;;;4879459;29;20180;-64
2024/03/22 17:14:29;;;;;;;0.40;0.40;;;17.10;88.00;;;;;;4885515;29;20197;-65
2024/03/22 17:16:55;;;;;;;0.30;0.30;;;16.90;87.80;;;;;;4897458;29;20487;-65
2024/03/22 17:19:21;;;;;;;0.30;0.30;;;16.90;87.90;;;;;;4897736;29;20390;-64
2024/03/22 17:21:47;;;;;;;0.60;0.60;;;16.80;87.90;;;;;;4897980;29;20472;-64
2024/03/22 17:24:12;;;;;;;0.30;0.30;;;16.70;87.50;;;;;;4892903;29;20174;-64
2024/03/22 17:26:41;;;;;;;0.60;0.50;;;16.60;87.60;;;;;;4877199;29;20201;-65
2024/03/22 17:29:10;;;;;;;0.30;0.30;;;16.50;87.80;;;;;;4879074;29;20594;-64
2024/03/22 17:31:36;;;;;;;0.30;0.30;;;16.50;88.30;;;;;;4879330;29;20423;-65
2024/03/22 17:34:02;;;;;;;0.50;0.40;;;16.40;88.60;;;;;;4881315;29;20434;-64
2024/03/22 17:36:28;;;;;;;0.30;0.30;;;16.30;89.20;;;;;;4893202;29;20844;-64
2024/03/22 17:38:55;;;;;;;0.50;0.50;;;16.30;89.70;;;;;;4892967;29;20328;-65
2024/03/22 17:41:20;;;;;;;0.30;0.30;;;16.30;90.20;;;;;;4895437;29;20538;-63
2024/03/22 17:43:49;;;;;;;0.67;0.67;;;16.20;90.30;;;;;;4890123;29;20428;-64
2024/03/22 17:46:15;;;;;;;0.30;0.30;;;16.20;90.50;;;;;;4892891;29;20296;-64
2024/03/22 17:48:40;;;;;;;0.40;0.40;;;16.20;90.50;;;;;;4892988;29;20635;-65